Detalii statie AGRONOVA [00001CEC]

Toti senzorii

Date Temperatura solului [C]Precipitatii [mm]Voltaj baterie [mV]Leaf Wetness [Min]HC Air temperature [C]HC Relative humidity [%]Punctul de roua [C]
medieminmaxsumaultimatimpmedieminmaxmediemediemin
2018-06-20 10:00:00 24.2 23.9 24.7 0 7186 26.39 25.4 27.19 0 0 0
2018-06-20 11:00:00 25 24.7 25.4 0 7246 27.87 26.75 29.34 0 0 0
2018-06-20 12:00:00 25.6 25.4 25.9 0 7246 29.59 28.67 30.18 0 0 0
2018-06-20 13:00:00 26.5 26 27 0 7246 31.17 30.39 32.51 0 0 0
2018-06-20 14:00:00 27.5 27.1 27.9 0 7040 30.46 29.11 31.99 0 0 0
2018-06-20 15:00:00 27.7 27.6 27.9 0 7246 29.28 27.84 31.31 0 0 0
2018-06-20 16:00:00 27.6 27.5 27.7 0 7246 31.42 30.88 31.93 0 0 0
2018-06-20 17:00:00 27.7 27.7 27.8 0 7226 31.1 30.14 31.93 0 0 0
2018-06-20 18:00:00 27.6 27.5 27.8 0 7108 30.83 30.33 31.24 0 0 0
2018-06-20 19:00:00 27.4 27.2 27.6 0 6972 29.92 28.98 30.43 0 0 0
2018-06-20 20:00:00 27 26.8 27.3 0 6826 26.57 24.76 28.7 0 0 0
2018-06-20 21:00:00 26.7 26.5 27 0 6678 23.33 22.32 24.67 0 0 0
2018-06-20 22:00:00 26.2 26 26.4 0 6630 21.68 20.92 22.24 0 0 0
2018-06-20 23:00:00 25.8 25.6 26.1 0 6610 20.75 20.4 21.05 0 0 0
2018-06-21 00:00:00 25.4 25.2 25.7 0 6610 19.75 19.3 20.14 0 0 0
2018-06-21 01:00:00 25 24.9 25.3 0 6610 18.89 18.4 19.51 0 0 0
2018-06-21 02:00:00 24.7 24.6 24.9 0 6610 18.64 18.09 19.01 0 0 0
2018-06-21 03:00:00 24.4 24.3 24.5 0 6600 18.7 18.19 19.09 0 0 0
2018-06-21 04:00:00 24.1 23.8 24.3 0 6600 17.67 17.46 18.02 0 0 0
2018-06-21 05:00:00 23.6 23.5 23.8 0 6590 17.22 17.07 17.51 0 0 0
2018-06-21 06:00:00 23.4 23.2 23.6 0 6640 17.83 17.12 18.81 0 0 0
2018-06-21 07:00:00 23.1 23.1 23.3 0.2 6718 19.54 18.68 20.75 0 0 0
2018-06-21 08:00:00 23.2 23.2 23.4 0 6796 22.04 20.3 23.61 0 0 0
2018-06-21 09:00:00 23.6 23.4 23.8 0 6894 24.32 23.35 25.28 0 0 0
2018-06-21 10:00:00 24.1 23.9 24.4 0 7128 26.59 25.57 27.66 0 0 0
2018-06-21 11:00:00 24.8 24.5 25 0 7246 25.01 24.62 25.77 0 0 0
2018-06-21 12:00:00 25 24.9 25.2 0 7246 27.66 26.24 28.89 0 0 0
2018-06-21 13:00:00 25.6 25.4 25.9 0 7246 29.19 28.09 30.35 0 0 0
2018-06-21 14:00:00 26.4 26 26.8 0 7246 30.61 30.1 31.19 0 0 0
2018-06-21 15:00:00 27.1 26.8 27.4 0 7246 31.04 30.57 31.55 0 0 0
2018-06-21 16:00:00 27.4 27.3 27.6 0 7246 31.2 30.74 31.62 0 0 0
2018-06-21 17:00:00 27.5 27.3 27.6 0 7236 30.91 30.69 31.2 0 0 0
2018-06-21 18:00:00 27.3 27.2 27.6 0 7236 30.34 29.68 30.84 0 0 0
2018-06-21 19:00:00 27 26.9 27.2 0 6932 28.2 27.38 29.32 0 0 0
2018-06-21 20:00:00 26.7 26.6 27 0 6786 26.34 25.3 27.29 0 0 0
2018-06-21 21:00:00 26.4 26.3 26.6 0 6668 23.94 22.51 25.12 0 0 0
2018-06-21 22:00:00 26 25.9 26.3 0 6620 21.74 21.23 22.33 0 0 0
2018-06-21 23:00:00 25.6 25.6 25.9 0 6610 20.48 19.64 21.07 0 0 0
2018-06-22 00:00:00 25.3 25.2 25.6 0 6620 18.98 18.54 19.3 0 0 0
2018-06-22 01:00:00 24.9 24.7 25.2 0 6610 18.1 17.38 18.57 0 0 0
2018-06-22 02:00:00 24.6 24.4 24.8 0 6600 17.68 17.43 18.04 0 0 0
2018-06-22 03:00:00 24.2 23.9 24.4 0 6590 16.86 16.55 17.27 0 0 0
2018-06-22 04:00:00 23.8 23.8 24.2 0 6582 16.71 16.55 17 0 0 0
2018-06-22 05:00:00 23.5 23.3 23.7 0 6582 16.38 16.08 16.62 0 0 0
2018-06-22 06:00:00 23.2 23.1 23.5 0 6630 16.64 15.9 17.6 0 0 0
2018-06-22 07:00:00 23 22.9 23.2 0 6688 19.11 18.04 20.71 0 0 0
2018-06-22 08:00:00 23.1 22.9 23.3 0 6738 22.54 20.82 24.12 0 0 0
2018-06-22 09:00:00 23.5 23.3 23.8 0 6816 25.38 23.98 26.72 0 0 0